createdAt,value
2023-06-04T00:00:03.602Z,8.18
2023-06-04T00:02:34.304Z,8.28
2023-06-04T00:05:04.970Z,8.26
2023-06-04T00:07:35.545Z,8.39
2023-06-04T00:10:07.505Z,8.47
2023-06-04T00:12:38.124Z,8.54
2023-06-04T00:15:11.636Z,8.57
2023-06-04T00:17:42.370Z,8.61
2023-06-04T00:20:13.885Z,8.58
2023-06-04T00:22:44.410Z,8.66
2023-06-04T00:25:14.880Z,8.66
2023-06-04T00:27:45.341Z,8.72
2023-06-04T00:30:18.396Z,8.83
2023-06-04T00:32:49.075Z,8.83
2023-06-04T00:35:19.768Z,8.94
2023-06-04T00:37:50.496Z,9.15
2023-06-04T00:40:21.094Z,9.34
2023-06-04T00:42:51.577Z,9.44
2023-06-04T00:45:23.924Z,9.52
2023-06-04T00:47:54.923Z,9.48
2023-06-04T00:50:25.425Z,9.50
2023-06-04T00:52:56.169Z,9.43
2023-06-04T00:55:26.739Z,9.53
2023-06-04T00:57:57.284Z,9.39
2023-06-04T01:00:29.688Z,9.36
2023-06-04T01:03:07.919Z,9.42
2023-06-04T01:05:44.978Z,9.22
2023-06-04T01:08:17.259Z,9.46
2023-06-04T01:10:55.465Z,9.39
2023-06-04T01:13:26.100Z,9.37
2023-06-04T01:16:01.743Z,9.44
2023-06-04T01:18:34.945Z,9.32
2023-06-04T01:21:10.663Z,9.28
2023-06-04T01:23:49.484Z,9.47
2023-06-04T01:26:23.693Z,9.39
2023-06-04T01:28:55.109Z,9.44
2023-06-04T01:31:28.067Z,9.47
2023-06-04T01:33:59.746Z,9.56
2023-06-04T01:36:30.377Z,9.57
2023-06-04T01:39:02.667Z,9.57
2023-06-04T01:41:33.188Z,9.56
2023-06-04T01:44:03.752Z,9.70
2023-06-04T01:46:36.046Z,9.77
2023-06-04T01:49:08.111Z,9.83
2023-06-04T01:51:38.736Z,9.81
2023-06-04T01:54:09.844Z,9.69
2023-06-04T01:56:40.477Z,9.69
2023-06-04T01:59:13.966Z,9.68
2023-06-04T02:01:46.286Z,9.67
2023-06-04T02:04:16.774Z,9.63
2023-06-04T02:06:47.321Z,9.49
2023-06-04T02:09:17.961Z,9.43
2023-06-04T02:11:48.503Z,9.45
2023-06-04T02:14:19.078Z,9.39
2023-06-04T02:16:51.758Z,9.42
2023-06-04T02:19:22.636Z,9.41
2023-06-04T02:21:53.242Z,9.36
2023-06-04T02:24:23.934Z,9.33
2023-06-04T02:26:57.639Z,9.36
2023-06-04T02:29:28.565Z,9.12
2023-06-04T02:32:00.864Z,9.31
2023-06-04T02:34:31.628Z,9.38
2023-06-04T02:37:02.134Z,9.41
2023-06-04T02:39:32.830Z,9.41
2023-06-04T02:42:03.272Z,9.41
2023-06-04T02:44:33.853Z,9.49
2023-06-04T02:47:05.963Z,9.34
2023-06-04T02:49:36.490Z,9.57
2023-06-04T02:52:07.387Z,9.47
2023-06-04T02:54:37.941Z,9.52
2023-06-04T02:57:09.263Z,9.48
2023-06-04T02:59:39.916Z,9.44
2023-06-04T03:02:13.069Z,9.44
2023-06-04T03:04:44.473Z,9.40
2023-06-04T03:07:15.344Z,9.42
2023-06-04T03:09:45.991Z,9.40
2023-06-04T03:12:16.558Z,9.36
2023-06-04T03:14:47.001Z,9.45
2023-06-04T03:17:19.516Z,9.54
2023-06-04T03:19:50.067Z,9.56
2023-06-04T03:22:20.622Z,9.51
2023-06-04T03:24:51.147Z,9.48
2023-06-04T03:27:21.702Z,9.48
2023-06-04T03:29:52.202Z,9.49
2023-06-04T03:32:24.254Z,9.47
2023-06-04T03:34:54.637Z,9.41
2023-06-04T03:37:25.175Z,9.46
2023-06-04T03:39:55.688Z,9.46
2023-06-04T03:42:26.191Z,9.45
2023-06-04T03:44:56.663Z,9.42
2023-06-04T03:47:28.853Z,9.44
2023-06-04T03:49:59.378Z,9.44
2023-06-04T03:52:30.319Z,9.35
2023-06-04T03:55:00.959Z,9.41
2023-06-04T03:57:31.548Z,9.47
2023-06-04T04:00:02.179Z,9.52
2023-06-04T04:02:34.802Z,9.48
2023-06-04T04:05:05.442Z,9.45
2023-06-04T04:07:36.039Z,9.39
2023-06-04T04:10:07.833Z,9.40
2023-06-04T04:12:38.453Z,9.44
2023-06-04T04:15:10.806Z,9.45
2023-06-04T04:17:43.031Z,9.41
2023-06-04T04:20:14.766Z,9.39
2023-06-04T04:22:45.667Z,9.36
2023-06-04T04:25:16.167Z,9.35
2023-06-04T04:27:46.683Z,9.38
2023-06-04T04:30:18.589Z,9.41
2023-06-04T04:32:52.034Z,9.40
2023-06-04T04:35:22.606Z,9.33
2023-06-04T04:37:53.135Z,9.29
2023-06-04T04:40:23.680Z,9.29
2023-06-04T04:42:54.264Z,9.30
2023-06-04T04:45:24.810Z,9.25
2023-06-04T04:47:57.053Z,9.33
2023-06-04T04:50:27.795Z,9.37
2023-06-04T04:52:58.361Z,9.35
2023-06-04T04:55:28.940Z,9.38
2023-06-04T04:57:59.613Z,9.34
2023-06-04T05:00:30.098Z,9.32
2023-06-04T05:03:02.379Z,9.25
2023-06-04T05:05:32.945Z,9.24
2023-06-04T05:08:03.537Z,9.28
2023-06-04T05:10:34.252Z,9.30
2023-06-04T05:13:04.795Z,9.29
2023-06-04T05:15:36.409Z,9.39
2023-06-04T05:18:09.681Z,9.39
2023-06-04T05:20:40.822Z,9.34
2023-06-04T05:23:11.289Z,9.32
2023-06-04T05:25:42.749Z,9.33
2023-06-04T05:28:14.773Z,9.32
2023-06-04T05:30:45.656Z,9.30
2023-06-04T05:33:21.125Z,9.25
2023-06-04T05:35:51.953Z,9.23
2023-06-04T05:38:22.544Z,9.18
2023-06-04T05:40:54.222Z,9.20
2023-06-04T05:43:26.287Z,9.16
2023-06-04T05:45:57.018Z,9.12
2023-06-04T05:48:29.296Z,9.12
2023-06-04T05:50:59.841Z,9.25
2023-06-04T05:53:30.548Z,9.26
2023-06-04T05:56:01.092Z,9.23
2023-06-04T05:58:31.765Z,9.20
2023-06-04T06:01:02.245Z,9.10
2023-06-04T06:03:34.649Z,8.95
2023-06-04T06:06:05.318Z,8.91
2023-06-04T06:08:35.898Z,8.82
2023-06-04T06:11:09.945Z,8.77
2023-06-04T06:13:41.553Z,8.72
2023-06-04T06:16:12.290Z,8.44
2023-06-04T06:18:44.468Z,8.49
2023-06-04T06:21:15.094Z,8.31
2023-06-04T06:23:45.652Z,8.16
2023-06-04T06:26:16.459Z,8.02
2023-06-04T06:28:48.056Z,7.87
2023-06-04T06:31:19.899Z,7.76
2023-06-04T06:33:52.227Z,7.67
2023-06-04T06:36:22.730Z,7.65
2023-06-04T06:38:54.328Z,7.61
2023-06-04T06:41:25.445Z,7.57
2023-06-04T06:43:56.160Z,7.60
2023-06-04T06:46:26.777Z,7.67
2023-06-04T06:48:59.482Z,7.67
2023-06-04T06:51:31.187Z,7.64
2023-06-04T06:54:03.737Z,7.61
2023-06-04T06:56:34.331Z,7.66
2023-06-04T06:59:05.028Z,7.68
2023-06-04T07:01:35.850Z,7.80
2023-06-04T07:04:08.245Z,7.85
2023-06-04T07:06:39.660Z,7.85
2023-06-04T07:09:10.556Z,7.89
2023-06-04T07:11:41.075Z,7.87
2023-06-04T07:14:11.628Z,7.93
2023-06-04T07:16:42.220Z,7.89
2023-06-04T07:19:14.325Z,7.68
2023-06-04T07:21:44.870Z,7.62
2023-06-04T07:24:15.685Z,7.65
2023-06-04T07:26:46.278Z,7.64
2023-06-04T07:29:17.124Z,7.73
2023-06-04T07:31:47.736Z,7.65
2023-06-04T07:34:19.910Z,7.78
2023-06-04T07:36:50.829Z,7.84
2023-06-04T07:39:21.273Z,7.64
2023-06-04T07:41:51.828Z,7.45
2023-06-04T07:44:22.309Z,7.49
2023-06-04T07:46:52.838Z,7.45
2023-06-04T07:49:25.077Z,7.35
2023-06-04T07:51:55.640Z,7.31
2023-06-04T07:54:26.335Z,7.26
2023-06-04T07:56:58.113Z,7.20
2023-06-04T07:59:28.609Z,7.11
2023-06-04T08:01:59.184Z,7.07
2023-06-04T08:04:31.674Z,7.04
2023-06-04T08:07:02.616Z,7.03
2023-06-04T08:09:33.160Z,7.04
2023-06-04T08:12:04.076Z,7.04
2023-06-04T08:14:34.646Z,6.98
2023-06-04T08:17:05.133Z,6.98
2023-06-04T08:19:37.268Z,6.93
2023-06-04T08:22:09.130Z,6.94
2023-06-04T08:24:39.619Z,6.86
2023-06-04T08:27:10.991Z,6.86
2023-06-04T08:29:42.185Z,6.55
2023-06-04T08:32:12.857Z,6.71
2023-06-04T08:34:45.038Z,6.46
2023-06-04T08:37:15.712Z,6.63
2023-06-04T08:39:46.252Z,6.61
2023-06-04T08:42:31.550Z,6.66
2023-06-04T08:45:02.693Z,6.82
2023-06-04T08:47:34.690Z,6.93
2023-06-04T08:50:10.486Z,7.06
2023-06-04T08:52:42.720Z,7.13
2023-06-04T08:55:16.202Z,7.20
2023-06-04T08:57:47.385Z,7.29
2023-06-04T09:00:22.584Z,7.30
2023-06-04T09:02:54.820Z,7.33
2023-06-04T09:05:30.440Z,7.25
2023-06-04T09:08:08.384Z,7.26
2023-06-04T09:10:43.661Z,7.30
2023-06-04T09:16:38.674Z,7.27
2023-06-04T09:19:18.399Z,7.33
2023-06-04T09:21:59.344Z,7.29
2023-06-04T09:24:42.420Z,7.28
2023-06-04T09:27:18.352Z,7.19
2023-06-04T09:29:59.831Z,6.93
2023-06-04T09:32:36.911Z,7.23
2023-06-04T09:35:56.852Z,6.99
2023-06-04T09:38:42.190Z,6.70
2023-06-04T09:41:37.314Z,6.44
2023-06-04T09:44:12.730Z,5.91
2023-06-04T09:46:56.899Z,6.62
2023-06-04T09:49:33.942Z,6.60
2023-06-04T09:52:06.255Z,6.60
2023-06-04T09:54:44.913Z,6.59
2023-06-04T09:57:23.751Z,6.23
2023-06-04T09:59:56.209Z,6.41
2023-06-04T10:02:35.285Z,6.10
2023-06-04T10:06:04.304Z,6.40
2023-06-04T10:08:36.003Z,6.29
2023-06-04T10:11:10.247Z,6.37
2023-06-04T10:13:49.162Z,6.51
2023-06-04T10:16:32.731Z,6.55
2023-06-04T10:19:08.698Z,6.30
2023-06-04T10:21:40.402Z,6.38
2023-06-04T10:24:13.791Z,6.71
2023-06-04T10:26:48.213Z,6.43
2023-06-04T10:29:21.536Z,6.53
2023-06-04T10:31:57.542Z,6.64
2023-06-04T10:34:32.068Z,6.27
2023-06-04T10:37:09.347Z,6.37
2023-06-04T10:39:41.877Z,6.29
2023-06-04T10:42:14.328Z,6.30
2023-06-04T10:44:49.875Z,6.19
2023-06-04T10:47:26.968Z,5.95
2023-06-04T10:50:21.750Z,6.02
2023-06-04T10:52:59.521Z,5.84
2023-06-04T10:55:30.331Z,5.90
2023-06-04T10:58:15.097Z,5.88
2023-06-04T11:00:50.651Z,5.81
2023-06-04T11:03:21.813Z,5.73
2023-06-04T11:05:59.845Z,5.74
2023-06-04T11:08:43.270Z,5.80
2023-06-04T11:11:17.914Z,5.66
2023-06-04T11:13:51.238Z,5.79
2023-06-04T11:16:24.994Z,5.81
2023-06-04T11:19:04.124Z,5.82
2023-06-04T11:21:38.710Z,5.80
2023-06-04T11:24:11.414Z,5.82
2023-06-04T11:26:48.054Z,5.77
2023-06-04T11:29:27.406Z,5.69
2023-06-04T11:31:59.811Z,5.68
2023-06-04T11:34:33.089Z,5.64
2023-06-04T11:37:15.590Z,5.56
2023-06-04T11:39:47.422Z,5.42
2023-06-04T11:42:26.265Z,5.58
2023-06-04T11:45:03.411Z,5.50
2023-06-04T11:47:36.121Z,5.53
2023-06-04T11:50:09.620Z,5.55
2023-06-04T11:52:42.501Z,5.52
2023-06-04T11:55:15.509Z,5.49
2023-06-04T11:57:47.789Z,5.47
2023-06-04T12:00:22.400Z,5.45
2023-06-04T12:02:56.429Z,5.40
2023-06-04T12:05:33.625Z,5.33
2023-06-04T12:08:12.638Z,5.34
2023-06-04T12:10:45.722Z,5.31
2023-06-04T12:13:17.537Z,5.46
2023-06-04T12:15:57.261Z,5.40
2023-06-04T12:18:29.841Z,5.47
2023-06-04T12:21:01.469Z,5.40
2023-06-04T12:23:33.150Z,5.16
2023-06-04T12:26:06.183Z,5.49
2023-06-04T12:28:38.562Z,5.45
2023-06-04T12:31:21.331Z,5.50
2023-06-04T12:33:53.079Z,5.49
2023-06-04T12:36:25.330Z,5.46
2023-06-04T12:38:57.189Z,5.47
2023-06-04T12:41:29.046Z,5.34
2023-06-04T12:44:01.612Z,5.41
2023-06-04T12:46:35.092Z,5.43
2023-06-04T12:49:10.397Z,5.44
2023-06-04T12:51:42.369Z,5.49
2023-06-04T12:54:14.067Z,5.51
2023-06-04T12:56:54.703Z,5.47
2023-06-04T12:59:26.259Z,5.45
2023-06-04T13:02:00.357Z,5.47
2023-06-04T13:04:32.070Z,5.52
2023-06-04T13:11:09.103Z,5.37
2023-06-04T13:13:42.837Z,5.43
2023-06-04T13:16:13.628Z,5.43
2023-06-04T13:18:46.072Z,5.40
2023-06-04T13:21:17.981Z,5.05
2023-06-04T13:23:53.238Z,5.32
2023-06-04T13:26:25.920Z,5.32
2023-06-04T13:28:57.490Z,5.11
2023-06-04T13:31:29.335Z,5.31
2023-06-04T13:34:08.947Z,5.35
2023-06-04T13:36:46.443Z,5.36
2023-06-04T13:39:18.211Z,5.34
2023-06-04T13:41:49.761Z,5.38
2023-06-04T13:44:21.462Z,5.32
2023-06-04T13:46:53.269Z,5.31
2023-06-04T13:49:26.522Z,5.30
2023-06-04T13:51:58.212Z,5.27
2023-06-04T13:54:30.286Z,5.23
2023-06-04T13:57:03.368Z,5.18
2023-06-04T13:59:34.968Z,5.17
2023-06-04T14:02:07.003Z,5.17
2023-06-04T14:04:42.306Z,5.27
2023-06-04T14:07:14.388Z,5.17
2023-06-04T14:09:45.912Z,5.24
2023-06-04T14:12:20.304Z,5.18
2023-06-04T14:14:51.829Z,5.26
2023-06-04T14:17:27.524Z,5.22
2023-06-04T14:20:02.518Z,5.14
2023-06-04T14:22:34.183Z,5.09
2023-06-04T14:25:06.061Z,5.10
2023-06-04T14:27:39.266Z,4.88
2023-06-04T14:30:14.016Z,5.06
2023-06-04T14:32:46.035Z,5.02
2023-06-04T14:35:19.748Z,5.05
2023-06-04T14:37:52.636Z,5.03
2023-06-04T14:40:25.070Z,4.98
2023-06-04T14:42:57.091Z,5.04
2023-06-04T14:45:28.736Z,5.08
2023-06-04T14:48:13.984Z,5.06
2023-06-04T14:50:49.297Z,5.00
2023-06-04T14:53:20.826Z,5.02
2023-06-04T14:55:54.183Z,5.04
2023-06-04T14:58:25.940Z,5.02
2023-06-04T15:01:05.689Z,4.93
2023-06-04T15:03:37.088Z,4.91
2023-06-04T15:06:21.089Z,4.88
2023-06-04T15:08:52.869Z,4.83
2023-06-04T15:11:23.397Z,4.79
2023-06-04T15:13:54.026Z,4.85
2023-06-04T15:16:32.424Z,4.93
2023-06-04T15:19:03.262Z,4.91
2023-06-04T15:21:45.980Z,4.90
2023-06-04T15:24:22.965Z,4.94
2023-06-04T15:26:54.039Z,4.99
2023-06-04T15:29:24.753Z,4.92
2023-06-04T15:31:59.500Z,4.97
2023-06-04T15:34:34.334Z,4.94
2023-06-04T15:37:06.838Z,4.93
2023-06-04T15:39:38.552Z,4.90
2023-06-04T15:42:09.518Z,4.81
2023-06-04T15:44:40.673Z,4.82
2023-06-04T15:47:11.453Z,4.88
2023-06-04T15:49:42.223Z,4.91
2023-06-04T15:52:22.110Z,4.87
2023-06-04T15:54:53.938Z,4.86
2023-06-04T15:57:31.615Z,4.79
2023-06-04T16:00:09.864Z,4.85
2023-06-04T16:02:43.214Z,4.85
2023-06-04T16:05:17.767Z,4.78
2023-06-04T16:07:59.362Z,4.78
2023-06-04T16:10:30.116Z,4.47
2023-06-04T16:13:00.672Z,4.75
2023-06-04T16:15:32.664Z,4.80
2023-06-04T16:18:03.320Z,4.70
2023-06-04T16:20:36.534Z,4.54
2023-06-04T16:23:08.845Z,4.73
2023-06-04T16:25:42.688Z,4.84
2023-06-04T16:28:15.344Z,4.79
2023-06-04T16:30:45.918Z,4.73
2023-06-04T16:33:16.650Z,4.78
2023-06-04T16:35:47.484Z,4.80
2023-06-04T16:38:19.934Z,4.79
2023-06-04T16:40:53.272Z,4.76
2023-06-04T16:43:24.537Z,4.73
2023-06-04T16:45:57.150Z,4.71
2023-06-04T16:48:27.809Z,4.69
2023-06-04T16:51:03.148Z,4.68
2023-06-04T16:53:35.577Z,4.66
2023-06-04T16:56:07.027Z,4.62
2023-06-04T16:58:42.803Z,4.71
2023-06-04T17:01:14.322Z,4.76
2023-06-04T17:03:46.016Z,4.76
2023-06-04T17:06:17.774Z,4.74
2023-06-04T17:08:50.262Z,4.65
2023-06-04T17:11:21.491Z,4.62
2023-06-04T17:13:59.620Z,4.63
2023-06-04T17:16:32.575Z,4.70
2023-06-04T17:19:03.840Z,4.71
2023-06-04T17:21:37.397Z,4.73
2023-06-04T17:24:13.091Z,4.52
2023-06-04T17:26:45.752Z,4.65
2023-06-04T17:29:19.156Z,4.62
2023-06-04T17:31:50.073Z,4.64
2023-06-04T17:34:21.181Z,4.64
2023-06-04T17:36:52.022Z,4.62
2023-06-04T17:39:24.380Z,4.63
2023-06-04T17:41:55.080Z,4.62
2023-06-04T17:44:25.660Z,4.53
2023-06-04T17:46:57.938Z,4.65
2023-06-04T17:49:31.367Z,4.67
2023-06-04T17:52:03.431Z,4.70
2023-06-04T17:54:35.698Z,4.63
2023-06-04T17:57:07.590Z,4.73
2023-06-04T17:59:38.298Z,4.72
2023-06-04T18:02:09.615Z,4.64
2023-06-04T18:04:41.600Z,4.71
2023-06-04T18:07:12.298Z,4.80
2023-06-04T18:09:46.949Z,4.87
2023-06-04T18:12:22.409Z,4.89
2023-06-04T18:14:54.659Z,4.85
2023-06-04T18:17:25.547Z,4.81
2023-06-04T18:19:59.232Z,4.75
2023-06-04T18:22:29.891Z,4.82
2023-06-04T18:25:05.716Z,4.73
2023-06-04T18:27:42.483Z,4.78
2023-06-04T18:30:13.539Z,4.82
2023-06-04T18:32:47.950Z,4.84
2023-06-04T18:35:20.598Z,4.85
2023-06-04T18:37:51.663Z,4.74
2023-06-04T18:40:24.791Z,4.75
2023-06-04T18:42:55.397Z,4.72
2023-06-04T18:45:29.767Z,4.79
2023-06-04T18:48:02.997Z,4.79
2023-06-04T18:50:34.706Z,4.76
2023-06-04T18:53:06.031Z,4.78
2023-06-04T18:55:38.502Z,4.85
2023-06-04T18:58:13.299Z,4.85
2023-06-04T19:00:44.259Z,4.84
2023-06-04T19:03:14.704Z,4.80
2023-06-04T19:05:45.124Z,4.76
2023-06-04T19:08:15.635Z,4.76
2023-06-04T19:10:52.103Z,4.75
2023-06-04T19:13:22.899Z,4.79
2023-06-04T19:15:54.577Z,4.82
2023-06-04T19:18:25.301Z,4.85
2023-06-04T19:20:55.913Z,4.88
2023-06-04T19:23:26.563Z,4.95
2023-06-04T19:25:58.804Z,4.98
2023-06-04T19:28:29.545Z,4.95
2023-06-04T19:31:00.099Z,5.05
2023-06-04T19:33:34.272Z,5.04
2023-06-04T19:36:05.462Z,5.02
2023-06-04T19:38:36.029Z,5.01
2023-06-04T19:41:08.125Z,5.07
2023-06-04T19:43:38.694Z,5.13
2023-06-04T19:46:09.391Z,5.13
2023-06-04T19:48:40.211Z,5.11
2023-06-04T19:51:11.030Z,5.13
2023-06-04T19:53:41.663Z,5.14
2023-06-04T19:56:13.746Z,5.17
2023-06-04T19:58:44.250Z,5.24
2023-06-04T20:01:14.752Z,5.23
2023-06-04T20:03:45.248Z,5.21
2023-06-04T20:06:15.776Z,5.28
2023-06-04T20:08:46.697Z,5.21
2023-06-04T20:11:18.883Z,5.22
2023-06-04T20:13:49.395Z,5.21
2023-06-04T20:16:19.919Z,5.31
2023-06-04T20:18:52.700Z,5.29
2023-06-04T20:21:23.148Z,5.41
2023-06-04T20:23:55.307Z,5.45
2023-06-04T20:26:28.486Z,5.44
2023-06-04T20:28:59.958Z,5.40
2023-06-04T20:31:30.927Z,5.45
2023-06-04T20:34:01.534Z,5.49
2023-06-04T20:36:33.849Z,5.55
2023-06-04T20:39:05.078Z,5.59
2023-06-04T20:41:37.187Z,5.62
2023-06-04T20:44:07.659Z,5.74
2023-06-04T20:46:38.108Z,5.72
2023-06-04T20:49:08.686Z,5.69
2023-06-04T20:51:39.193Z,5.73
2023-06-04T20:54:09.870Z,5.88
2023-06-04T20:56:45.363Z,5.94
2023-06-04T20:59:18.176Z,5.99
2023-06-04T21:01:48.751Z,6.02
2023-06-04T21:04:19.418Z,6.10
2023-06-04T21:06:51.086Z,6.22
2023-06-04T21:09:21.692Z,6.37
2023-06-04T21:11:53.908Z,6.43
2023-06-04T21:14:24.376Z,6.21
2023-06-04T21:16:54.896Z,6.50
2023-06-04T21:19:25.992Z,6.50
2023-06-04T21:21:57.683Z,6.64
2023-06-04T21:24:28.275Z,6.65
2023-06-04T21:27:00.795Z,6.67
2023-06-04T21:29:31.374Z,6.70
2023-06-04T21:32:01.963Z,6.74
2023-06-04T21:34:35.521Z,6.77
2023-06-04T21:37:05.929Z,6.83
2023-06-04T21:39:37.829Z,6.93
2023-06-04T21:42:10.867Z,6.92
2023-06-04T21:44:41.447Z,6.24
2023-06-04T21:47:12.362Z,6.98
2023-06-04T21:49:42.832Z,7.03
2023-06-04T21:52:21.641Z,7.00
2023-06-04T21:54:55.763Z,6.93
2023-06-04T21:57:27.882Z,6.96
2023-06-04T21:59:58.433Z,7.01
2023-06-04T22:02:28.974Z,6.99
2023-06-04T22:04:59.577Z,6.94
2023-06-04T22:07:30.213Z,7.04
2023-06-04T22:10:00.861Z,7.23
2023-06-04T22:12:32.919Z,7.31
2023-06-04T22:15:03.456Z,7.43
2023-06-04T22:17:34.027Z,7.51
2023-06-04T22:20:04.790Z,7.65
2023-06-04T22:22:35.255Z,7.84
2023-06-04T22:25:05.713Z,8.12
2023-06-04T22:27:37.772Z,8.41
2023-06-04T22:30:09.394Z,8.55
2023-06-04T22:32:39.894Z,8.53
2023-06-04T22:35:10.675Z,8.27
2023-06-04T22:37:41.152Z,8.40
2023-06-04T22:40:12.463Z,8.53
2023-06-04T22:42:44.598Z,8.42
2023-06-04T22:45:15.251Z,8.52
2023-06-04T22:47:45.802Z,8.67
2023-06-04T22:50:16.519Z,8.71
2023-06-04T22:52:47.140Z,8.76
2023-06-04T22:55:19.228Z,8.69
2023-06-04T22:57:52.781Z,8.28
2023-06-04T23:00:24.021Z,8.44
2023-06-04T23:02:57.309Z,8.58
2023-06-04T23:05:27.987Z,8.73
2023-06-04T23:07:58.600Z,8.78
2023-06-04T23:10:29.265Z,8.93
2023-06-04T23:13:01.438Z,9.02
2023-06-04T23:15:31.922Z,8.87
2023-06-04T23:18:02.591Z,8.60
2023-06-04T23:20:33.197Z,8.41
2023-06-04T23:23:03.832Z,8.35
2023-06-04T23:25:34.594Z,8.31
2023-06-04T23:28:06.946Z,8.54
2023-06-04T23:30:37.647Z,8.63
2023-06-04T23:33:08.290Z,8.67
2023-06-04T23:35:38.940Z,8.73
2023-06-04T23:38:09.591Z,8.78
2023-06-04T23:40:40.198Z,8.76
2023-06-04T23:43:12.383Z,8.67
2023-06-04T23:45:43.048Z,8.72
2023-06-04T23:48:13.758Z,8.96
2023-06-04T23:50:44.377Z,9.36
2023-06-04T23:53:14.988Z,9.63
2023-06-04T23:55:45.561Z,9.85
2023-06-04T23:58:18.098Z,9.58
